Time;durP1;ratioP1;P1;durP2;ratioP2;P2;SDS_P1;SDS_P2;PMS_P1;PMS_P2;Temp;Humidity;BMP_temperature;BMP_pressure;BME280_temperature;BME280_humidity;BME280_pressure;Samples;Min_cycle;Max_cycle;Signal;HPM_P1;HPM_P2
2021/12/14 00:01:31;;;;;;;22.67;15.15;;;8.30;99.90;;;;;;5093404;28;20336;-60
2021/12/14 00:04:01;;;;;;;21.98;15.63;;;8.30;99.90;;;;;;5110026;28;20039;-57
2021/12/14 00:06:27;;;;;;;22.60;15.65;;;8.30;99.90;;;;;;5105358;28;20751;-58
2021/12/14 00:08:58;;;;;;;24.63;16.33;;;8.30;99.90;;;;;;5105241;28;20436;-58
2021/12/14 00:16:49;;;;;;;25.63;16.65;;;8.20;99.90;;;;;;5111173;28;20039;-58
2021/12/14 00:19:16;;;;;;;27.70;16.60;;;8.20;99.90;;;;;;5092674;28;20043;-58
2021/12/14 00:21:49;;;;;;;27.48;17.17;;;8.30;99.90;;;;;;5075661;28;20077;-58
2021/12/14 00:24:15;;;;;;;21.75;14.63;;;8.20;99.90;;;;;;5092152;28;20420;-58
2021/12/14 00:26:49;;;;;;;24.02;16.20;;;8.20;99.90;;;;;;5110943;28;20044;-58
2021/12/14 00:29:23;;;;;;;26.10;16.60;;;8.20;99.90;;;;;;5111217;28;20118;-58
2021/12/14 00:31:49;;;;;;;29.13;17.08;;;8.20;99.90;;;;;;5110624;28;20442;-58
2021/12/14 00:34:22;;;;;;;26.20;16.92;;;8.20;99.90;;;;;;5110614;28;20031;-58
2021/12/14 00:36:49;;;;;;;24.98;16.70;;;8.20;99.90;;;;;;5111671;28;20035;-58
2021/12/14 00:39:15;;;;;;;25.80;17.08;;;8.20;99.90;;;;;;5109216;28;20035;-58
2021/12/14 00:41:41;;;;;;;24.98;16.75;;;8.20;99.90;;;;;;5092602;28;20487;-59
2021/12/14 00:44:08;;;;;;;23.15;15.38;;;8.20;99.90;;;;;;5110612;28;20440;-58
2021/12/14 00:46:36;;;;;;;27.05;16.30;;;8.20;99.90;;;;;;5111173;28;20475;-58
2021/12/14 00:49:04;;;;;;;23.02;15.43;;;8.20;99.90;;;;;;5110839;28;20740;-58
2021/12/14 00:51:30;;;;;;;25.20;16.60;;;8.20;99.90;;;;;;5109995;28;20145;-58
2021/12/14 00:53:58;;;;;;;23.95;15.77;;;8.20;99.90;;;;;;5092581;28;20043;-58
2021/12/14 00:56:25;;;;;;;26.17;17.52;;;8.20;99.90;;;;;;5111197;28;20094;-58
2021/12/14 00:58:51;;;;;;;24.92;16.52;;;8.20;99.90;;;;;;5110418;28;20099;-58
2021/12/14 01:01:25;;;;;;;27.45;16.63;;;8.20;99.90;;;;;;5110824;28;20428;-58
2021/12/14 01:03:55;;;;;;;25.85;16.58;;;8.20;99.90;;;;;;5110198;28;20040;-58
2021/12/14 01:06:25;;;;;;;22.83;16.05;;;8.20;99.90;;;;;;5111052;28;20039;-57
2021/12/14 01:08:51;;;;;;;26.58;16.80;;;8.20;99.90;;;;;;5110747;28;20071;-58
2021/12/14 01:11:36;;;;;;;25.90;16.20;;;8.20;99.90;;;;;;5092206;28;20055;-58
2021/12/14 01:14:12;;;;;;;24.63;16.92;;;8.20;99.90;;;;;;5110690;28;20058;-58
2021/12/14 01:17:07;;;;;;;24.88;16.20;;;8.20;99.90;;;;;;5110369;28;20060;-58
2021/12/14 01:19:36;;;;;;;25.02;16.15;;;8.30;99.90;;;;;;5110294;28;20036;-58
2021/12/14 01:22:19;;;;;;;22.80;16.08;;;8.20;99.90;;;;;;5110406;28;20040;-58
2021/12/14 01:25:02;;;;;;;23.98;16.15;;;8.20;99.90;;;;;;5110750;28;20032;-58
2021/12/14 01:27:35;;;;;;;26.17;16.85;;;8.30;99.90;;;;;;5110910;28;20036;-57
2021/12/14 01:30:14;;;;;;;24.17;16.55;;;8.10;99.90;;;;;;5110731;28;20055;-57
2021/12/14 01:32:44;;;;;;;27.83;16.42;;;8.10;99.90;;;;;;5114399;28;20379;-58
2021/12/14 01:35:13;;;;;;;27.67;17.83;;;8.10;99.90;;;;;;5113438;28;20028;-58
2021/12/14 01:37:58;;;;;;;24.42;16.75;;;8.10;99.90;;;;;;5095721;28;20090;-58
2021/12/14 01:40:46;;;;;;;27.40;17.63;;;8.10;99.90;;;;;;5112874;28;20052;-58
2021/12/14 01:43:10;;;;;;;26.88;16.45;;;8.10;99.90;;;;;;5113028;28;20935;-58
2021/12/14 01:45:36;;;;;;;29.10;18.50;;;8.10;99.90;;;;;;5111884;28;20059;-58
2021/12/14 01:48:02;;;;;;;27.80;18.08;;;8.10;99.90;;;;;;5113019;28;20059;-58
2021/12/14 01:50:40;;;;;;;27.75;19.00;;;8.10;99.90;;;;;;5110561;28;20044;-58
2021/12/14 01:53:07;;;;;;;28.70;18.10;;;8.10;99.90;;;;;;5111582;28;20031;-57
2021/12/14 01:55:36;;;;;;;29.73;19.00;;;8.20;99.90;;;;;;5113960;28;20047;-58
2021/12/14 01:58:06;;;;;;;32.60;20.08;;;8.10;99.90;;;;;;5112868;28;20035;-58
2021/12/14 02:00:40;;;;;;;33.95;20.55;;;8.10;99.90;;;;;;5112684;28;20505;-57
2021/12/14 02:03:08;;;;;;;31.98;20.02;;;8.10;99.90;;;;;;5113638;28;20031;-58
2021/12/14 02:05:40;;;;;;;32.47;20.73;;;8.10;99.90;;;;;;5108779;28;20490;-58
2021/12/14 02:08:39;;;;;;;34.63;20.60;;;8.30;99.90;;;;;;5108613;28;20190;-58
2021/12/14 02:11:08;;;;;;;31.45;19.58;;;8.10;99.90;;;;;;5108918;28;20058;-58
2021/12/14 02:13:40;;;;;;;36.28;21.58;;;8.20;99.90;;;;;;5113182;28;20074;-58
2021/12/14 02:16:08;;;;;;;37.53;22.42;;;8.10;99.90;;;;;;5077471;28;20063;-58
2021/12/14 02:18:34;;;;;;;36.45;22.27;;;8.10;99.90;;;;;;5095351;28;20398;-58
2021/12/14 02:21:09;;;;;;;36.65;21.88;;;8.20;99.90;;;;;;5110292;28;20168;-57
2021/12/14 02:23:39;;;;;;;37.83;22.25;;;8.10;99.90;;;;;;5089621;28;20418;-58
2021/12/14 02:26:09;;;;;;;37.28;23.02;;;8.10;99.90;;;;;;5109191;28;20161;-58
2021/12/14 02:28:35;;;;;;;39.33;23.63;;;8.10;99.90;;;;;;5112291;28;20054;-58
2021/12/14 02:31:07;;;;;;;37.15;23.35;;;8.10;99.90;;;;;;5111731;28;20035;-58
2021/12/14 02:33:39;;;;;;;37.58;23.48;;;8.10;99.90;;;;;;5107515;28;20594;-58
2021/12/14 02:36:09;;;;;;;39.08;22.98;;;8.10;99.90;;;;;;5091987;28;20477;-58
2021/12/14 02:38:43;;;;;;;40.03;23.20;;;8.10;99.90;;;;;;5105673;28;20042;-58
2021/12/14 02:41:10;;;;;;;40.80;24.40;;;8.10;99.90;;;;;;5093515;28;20051;-58
2021/12/14 02:43:41;;;;;;;40.38;24.63;;;8.10;99.90;;;;;;5093232;28;20047;-58
2021/12/14 02:46:17;;;;;;;40.95;24.52;;;8.10;99.90;;;;;;5112524;28;20048;-57
2021/12/14 02:48:49;;;;;;;39.25;23.80;;;8.10;99.90;;;;;;5111260;28;20035;-58
2021/12/14 02:51:21;;;;;;;43.33;24.48;;;8.10;99.90;;;;;;5106503;28;20491;-58
2021/12/14 02:53:51;;;;;;;43.97;25.58;;;8.10;99.90;;;;;;5103694;28;20038;-58
2021/12/14 02:56:21;;;;;;;41.65;25.65;;;8.10;99.90;;;;;;5109293;28;20032;-58
2021/12/14 02:58:49;;;;;;;43.63;26.20;;;8.10;99.90;;;;;;5092114;28;20040;-58
2021/12/14 03:01:16;;;;;;;40.95;25.08;;;8.00;99.90;;;;;;5110661;28;20582;-58
2021/12/14 03:03:42;;;;;;;41.97;26.08;;;8.00;99.90;;;;;;5105493;28;21311;-57
2021/12/14 03:06:11;;;;;;;40.95;25.58;;;8.10;99.90;;;;;;5108285;28;20508;-58
2021/12/14 03:08:45;;;;;;;42.90;26.48;;;8.00;99.90;;;;;;5106491;28;20054;-58
2021/12/14 03:11:12;;;;;;;42.58;26.13;;;8.10;99.90;;;;;;5109598;28;20043;-58
2021/12/14 03:13:52;;;;;;;45.15;26.65;;;8.00;99.90;;;;;;5109296;28;20055;-58
2021/12/14 03:16:24;;;;;;;45.67;27.50;;;8.00;99.90;;;;;;5112774;28;20116;-58
2021/12/14 03:18:52;;;;;;;42.67;26.95;;;8.10;99.90;;;;;;5091265;28;20032;-58
2021/12/14 03:21:21;;;;;;;43.38;27.48;;;8.00;99.90;;;;;;5111247;28;20510;-58
2021/12/14 03:23:57;;;;;;;46.17;27.65;;;8.10;99.90;;;;;;5110096;28;20096;-58
2021/12/14 03:26:28;;;;;;;46.97;27.77;;;8.00;99.90;;;;;;5109859;28;20024;-58
2021/12/14 03:28:57;;;;;;;48.47;28.52;;;8.00;99.90;;;;;;5109294;28;20050;-57
2021/12/14 03:31:27;;;;;;;45.47;28.13;;;8.00;99.90;;;;;;5076657;28;20077;-58
2021/12/14 03:34:02;;;;;;;49.42;27.67;;;8.00;99.90;;;;;;5108024;28;20049;-58
2021/12/14 03:36:32;;;;;;;46.42;28.73;;;8.00;99.90;;;;;;5119422;27;20051;-57
2021/12/14 03:39:01;;;;;;;50.03;29.23;;;8.00;99.90;;;;;;5102012;28;20065;-58
2021/12/14 03:41:42;;;;;;;47.10;27.95;;;8.00;99.90;;;;;;5121811;27;20074;-58
2021/12/14 03:44:26;;;;;;;45.15;27.30;;;8.00;99.90;;;;;;5090141;28;20043;-58
2021/12/14 03:47:05;;;;;;;48.65;28.45;;;8.00;99.90;;;;;;5091780;28;20126;-58
2021/12/14 03:49:37;;;;;;;49.28;29.17;;;8.00;99.90;;;;;;5107983;28;20043;-58
2021/12/14 03:52:11;;;;;;;47.15;28.42;;;8.00;99.90;;;;;;5110147;28;20360;-58
2021/12/14 03:54:38;;;;;;;47.40;28.02;;;8.00;99.90;;;;;;5094210;28;20087;-58
2021/12/14 03:57:04;;;;;;;48.88;29.02;;;7.90;99.90;;;;;;5097780;28;20127;-57
2021/12/14 03:59:31;;;;;;;50.22;29.40;;;7.90;99.90;;;;;;5075560;28;20043;-57
2021/12/14 04:01:59;;;;;;;49.40;29.42;;;8.00;99.90;;;;;;5080312;28;20387;-58
2021/12/14 04:04:31;;;;;;;49.15;29.75;;;7.90;99.90;;;;;;5073606;28;20583;-58
2021/12/14 04:07:00;;;;;;;49.40;29.52;;;7.90;99.90;;;;;;5069313;28;20040;-58
2021/12/14 04:09:29;;;;;;;46.33;26.85;;;8.00;99.90;;;;;;5099675;28;20089;-58
2021/12/14 04:11:57;;;;;;;49.60;29.90;;;7.90;99.90;;;;;;5111233;28;20062;-58
2021/12/14 04:14:28;;;;;;;52.55;30.02;;;7.90;99.90;;;;;;5108013;28;20126;-58
2021/12/14 04:16:56;;;;;;;51.83;30.80;;;7.90;99.90;;;;;;5093779;28;20039;-58
2021/12/14 04:19:27;;;;;;;47.47;29.65;;;7.90;99.90;;;;;;5109472;28;20071;-58
2021/12/14 04:21:56;;;;;;;50.28;30.35;;;7.80;99.90;;;;;;5108914;28;20034;-57
2021/12/14 04:24:25;;;;;;;52.78;30.80;;;7.80;99.90;;;;;;5093624;28;20550;-58
2021/12/14 04:26:53;;;;;;;52.10;30.23;;;7.80;99.90;;;;;;5084426;28;20102;-58
2021/12/14 04:29:19;;;;;;;52.45;30.83;;;7.80;99.90;;;;;;5079201;28;20101;-58
2021/12/14 04:31:47;;;;;;;55.88;31.00;;;7.70;99.90;;;;;;5070170;28;20121;-59
2021/12/14 04:34:17;;;;;;;53.13;31.42;;;7.70;99.90;;;;;;5072190;28;20062;-58
2021/12/14 04:36:50;;;;;;;52.70;31.80;;;7.70;99.90;;;;;;5069527;28;20121;-58
2021/12/14 04:39:43;;;;;;;54.08;31.40;;;7.80;99.90;;;;;;5068766;28;20047;-59
2021/12/14 04:53:10;;;;;;;56.08;32.20;;;7.70;99.90;;;;;;5068496;28;21669;-58
2021/12/14 04:55:42;;;;;;;53.47;32.83;;;7.80;99.90;;;;;;5079444;28;20052;-58
2021/12/14 04:58:08;;;;;;;53.38;31.85;;;7.70;99.90;;;;;;5110606;28;20039;-58
2021/12/14 05:00:45;;;;;;;57.75;33.25;;;7.80;99.90;;;;;;5108975;28;20513;-57
2021/12/14 05:03:16;;;;;;;56.83;32.50;;;7.80;99.90;;;;;;5072452;28;20036;-58
2021/12/14 05:05:48;;;;;;;56.40;32.55;;;7.80;99.90;;;;;;5109141;28;20047;-58
2021/12/14 05:10:58;;;;;;;57.40;34.17;;;7.80;99.90;;;;;;5112568;28;20043;-58
2021/12/14 05:13:29;;;;;;;58.33;33.55;;;7.80;99.90;;;;;;5113197;28;20087;-58
2021/12/14 05:15:56;;;;;;;61.28;34.83;;;7.80;99.90;;;;;;5113343;28;20039;-58
2021/12/14 05:18:23;;;;;;;59.08;34.75;;;7.80;99.90;;;;;;5113829;28;20570;-57
2021/12/14 05:20:50;;;;;;;60.10;34.88;;;7.80;99.90;;;;;;5113330;28;20382;-58
2021/12/14 05:23:27;;;;;;;61.90;34.83;;;7.80;99.90;;;;;;5110698;28;20047;-58
2021/12/14 05:25:56;;;;;;;62.83;35.00;;;7.80;99.90;;;;;;5094919;28;20047;-57
2021/12/14 05:28:23;;;;;;;59.70;34.85;;;7.80;99.90;;;;;;5108510;28;20047;-58
2021/12/14 05:30:57;;;;;;;66.15;36.65;;;7.80;99.90;;;;;;5114383;28;20067;-58
2021/12/14 05:33:27;;;;;;;58.97;34.60;;;7.80;99.90;;;;;;5112543;28;20458;-58
2021/12/14 05:36:01;;;;;;;67.20;37.10;;;7.80;99.90;;;;;;5096895;28;20594;-58
2021/12/14 05:38:43;;;;;;;;;;;7.80;99.90;;;;;;5086066;28;20040;-58
2021/12/14 05:44:00;;;;;;;65.10;36.30;;;7.80;99.90;;;;;;5069129;28;20070;-59
2021/12/14 05:46:26;;;;;;;61.53;35.75;;;7.80;99.90;;;;;;5113610;28;20049;-58
2021/12/14 05:49:04;;;;;;;70.40;37.05;;;7.80;99.90;;;;;;5110297;28;20042;-58
2021/12/14 05:51:31;;;;;;;68.65;37.58;;;7.80;99.90;;;;;;5108365;28;20172;-58
2021/12/14 05:53:58;;;;;;;63.90;35.63;;;7.80;99.90;;;;;;5110848;28;20038;-58
2021/12/14 05:56:25;;;;;;;67.05;38.20;;;7.80;99.90;;;;;;5109458;28;20074;-58
2021/12/14 05:58:53;;;;;;;65.85;38.78;;;7.80;99.90;;;;;;5106504;28;20044;-57
2021/12/14 06:01:26;;;;;;;67.10;38.85;;;7.80;99.90;;;;;;5111212;28;20027;-58
2021/12/14 06:04:05;;;;;;;65.60;39.23;;;7.80;99.90;;;;;;5109624;28;20093;-58
2021/12/14 06:06:38;;;;;;;70.13;38.63;;;7.80;99.90;;;;;;5104860;28;20364;-58
2021/12/14 06:09:07;;;;;;;69.15;39.03;;;7.80;99.90;;;;;;5110051;28;20113;-58
2021/12/14 06:11:33;;;;;;;66.38;38.30;;;7.80;99.90;;;;;;5112985;28;20135;-58
2021/12/14 06:13:58;;;;;;;71.13;39.83;;;7.80;99.90;;;;;;5106095;28;20069;-58
2021/12/14 06:16:32;;;;;;;71.47;39.42;;;7.80;99.90;;;;;;5094772;28;20051;-58
2021/12/14 06:19:18;;;;;;;67.18;39.55;;;8.00;99.90;;;;;;5112055;28;20409;-58
2021/12/14 06:21:46;;;;;;;67.32;38.88;;;8.00;99.90;;;;;;5109271;28;20050;-58
2021/12/14 06:24:12;;;;;;;73.85;39.17;;;7.80;99.90;;;;;;5103585;28;20051;-58
2021/12/14 06:26:45;;;;;;;74.13;41.15;;;7.80;99.90;;;;;;5094038;28;20047;-58
2021/12/14 06:29:21;;;;;;;75.18;40.65;;;7.80;99.90;;;;;;5110666;28;20122;-58
2021/12/14 06:31:47;;;;;;;75.28;41.17;;;7.80;99.90;;;;;;5113299;28;20043;-58
2021/12/14 06:34:26;;;;;;;76.07;41.22;;;7.80;99.90;;;;;;5107250;28;20108;-58
2021/12/14 06:37:02;;;;;;;79.70;42.88;;;7.80;99.90;;;;;;5111148;28;20035;-57
2021/12/14 06:39:28;;;;;;;72.97;41.50;;;7.80;99.90;;;;;;5109031;28;20093;-58
2021/12/14 06:42:04;;;;;;;72.32;41.65;;;7.80;99.90;;;;;;5112006;28;20364;-58
2021/12/14 06:44:30;;;;;;;75.65;42.63;;;7.80;99.90;;;;;;5107534;28;20043;-58
2021/12/14 06:46:56;;;;;;;75.07;41.38;;;7.80;99.90;;;;;;5112744;28;20042;-58
2021/12/14 06:49:24;;;;;;;79.65;42.17;;;8.00;99.90;;;;;;5107770;28;20979;-57
2021/12/14 06:51:53;;;;;;;72.13;40.58;;;7.90;99.90;;;;;;5105528;28;20066;-57
2021/12/14 06:54:31;;;;;;;75.82;42.47;;;8.00;99.90;;;;;;5112427;28;20440;-58
2021/12/14 06:57:00;;;;;;;79.70;43.38;;;7.80;99.90;;;;;;5109085;28;20487;-58
2021/12/14 06:59:27;;;;;;;73.78;41.40;;;7.80;99.90;;;;;;5105685;28;20043;-58
2021/12/14 07:02:00;;;;;;;77.53;41.60;;;7.80;99.90;;;;;;5112530;28;20032;-58
2021/12/14 07:04:30;;;;;;;78.40;43.63;;;7.90;99.90;;;;;;5107166;28;20459;-57
2021/12/14 07:07:00;;;;;;;76.70;42.38;;;7.80;99.90;;;;;;5106783;28;20032;-58
2021/12/14 07:09:33;;;;;;;78.20;41.42;;;7.80;99.90;;;;;;5105641;28;20043;-58
2021/12/14 07:12:01;;;;;;;80.15;43.10;;;7.80;99.90;;;;;;5109744;28;20140;-58
2021/12/14 07:14:27;;;;;;;84.40;43.58;;;7.80;99.90;;;;;;5109835;28;20131;-58
2021/12/14 07:16:55;;;;;;;76.28;42.05;;;7.80;99.90;;;;;;5112554;28;20502;-58
2021/12/14 07:19:42;;;;;;;81.80;43.40;;;7.80;99.90;;;;;;5108025;28;20039;-58
2021/12/14 07:22:28;;;;;;;80.68;42.88;;;7.80;99.90;;;;;;5093893;28;20035;-58
2021/12/14 07:25:17;;;;;;;79.38;43.47;;;7.80;99.90;;;;;;5105536;28;20044;-58
2021/12/14 07:27:43;;;;;;;77.38;41.88;;;7.80;99.90;;;;;;5109234;28;20105;-58
2021/12/14 07:30:11;;;;;;;79.78;43.67;;;7.80;99.90;;;;;;5105772;28;20041;-58
2021/12/14 07:32:50;;;;;;;78.40;43.15;;;7.80;99.90;;;;;;5111776;28;20538;-57
2021/12/14 07:35:38;;;;;;;75.88;42.13;;;7.80;99.90;;;;;;5101091;28;20044;-58
2021/12/14 07:38:10;;;;;;;75.65;41.47;;;7.80;99.90;;;;;;5111796;28;20114;-58
2021/12/14 07:40:39;;;;;;;72.20;41.45;;;7.70;99.90;;;;;;5107934;28;20115;-58
2021/12/14 07:43:15;;;;;;;77.22;42.92;;;7.80;99.90;;;;;;5091997;28;20508;-57
2021/12/14 07:45:41;;;;;;;78.18;42.00;;;7.70;99.90;;;;;;5109525;28;20428;-58
2021/12/14 07:48:08;;;;;;;79.22;41.90;;;7.80;99.90;;;;;;5104487;28;20096;-58
2021/12/14 07:50:45;;;;;;;76.28;42.08;;;7.70;99.90;;;;;;5105707;28;20378;-57
2021/12/14 07:53:11;;;;;;;78.22;41.78;;;7.70;99.90;;;;;;5111537;28;20039;-58
2021/12/14 07:55:42;;;;;;;79.80;42.15;;;7.70;99.90;;;;;;5101658;28;20509;-57
2021/12/14 07:58:10;;;;;;;75.20;41.75;;;7.70;99.90;;;;;;5098460;28;20028;-58
2021/12/14 08:00:40;;;;;;;73.47;41.35;;;7.70;99.90;;;;;;5101428;28;20052;-58
2021/12/14 08:03:08;;;;;;;72.25;41.15;;;7.90;99.90;;;;;;5098671;28;20623;-58
2021/12/14 08:05:42;;;;;;;78.40;42.40;;;7.70;99.90;;;;;;5065006;28;20548;-58
2021/12/14 08:08:19;;;;;;;77.95;41.63;;;7.70;99.90;;;;;;5096910;28;20027;-58
2021/12/14 08:10:56;;;;;;;76.32;41.33;;;7.70;99.90;;;;;;5083659;28;20039;-58
2021/12/14 08:13:24;;;;;;;79.05;41.55;;;7.70;99.90;;;;;;5096297;28;20607;-58
2021/12/14 08:15:55;;;;;;;73.22;41.67;;;7.80;99.90;;;;;;5101940;28;20459;-58
2021/12/14 08:18:27;;;;;;;76.95;41.90;;;7.70;99.90;;;;;;5099242;28;20036;-59
2021/12/14 08:21:03;;;;;;;77.03;41.78;;;7.80;99.90;;;;;;5097213;28;20481;-58
2021/12/14 08:23:34;;;;;;;71.72;41.67;;;7.80;99.90;;;;;;5100248;28;20398;-58
2021/12/14 08:26:09;;;;;;;73.28;40.28;;;7.70;99.90;;;;;;5102753;28;20499;-58
2021/12/14 08:29:04;;;;;;;78.47;42.88;;;7.80;99.90;;;;;;5090036;28;20036;-58
2021/12/14 08:31:37;;;;;;;73.43;41.22;;;7.80;99.90;;;;;;5086255;28;20043;-58
2021/12/14 08:34:09;;;;;;;72.65;41.63;;;7.80;99.90;;;;;;5077467;28;20039;-58
2021/12/14 08:36:47;;;;;;;71.95;40.78;;;7.80;99.90;;;;;;5094755;28;20482;-58
2021/12/14 08:39:18;;;;;;;70.13;40.67;;;7.80;99.90;;;;;;5096746;28;20092;-58
2021/12/14 08:41:51;;;;;;;75.38;39.53;;;7.90;99.90;;;;;;5099186;28;20035;-58
2021/12/14 08:44:23;;;;;;;73.45;39.83;;;7.90;99.90;;;;;;5074931;28;20071;-58
2021/12/14 08:46:51;;;;;;;72.20;39.90;;;7.90;99.90;;;;;;5094430;28;20456;-58
2021/12/14 08:49:19;;;;;;;71.28;38.75;;;7.90;99.90;;;;;;5092494;28;20101;-58
2021/12/14 08:51:48;;;;;;;72.97;38.83;;;7.90;99.90;;;;;;5098694;28;20088;-57
2021/12/14 08:54:21;;;;;;;69.13;39.20;;;7.90;99.90;;;;;;5094906;28;20055;-58
2021/12/14 08:57:02;;;;;;;67.75;38.58;;;8.00;99.90;;;;;;5099693;28;20027;-58
2021/12/14 08:59:29;;;;;;;69.93;38.90;;;8.00;99.90;;;;;;5100602;28;20039;-58
2021/12/14 09:01:57;;;;;;;66.30;38.95;;;8.00;99.90;;;;;;5102704;28;20069;-58
2021/12/14 09:04:37;;;;;;;65.15;37.40;;;8.00;99.90;;;;;;5097065;28;20039;-57
2021/12/14 09:07:19;;;;;;;65.72;38.30;;;8.00;99.90;;;;;;5096323;28;20032;-58
2021/12/14 09:09:45;;;;;;;64.82;37.70;;;8.00;99.90;;;;;;5077353;28;20042;-57
2021/12/14 09:12:13;;;;;;;68.90;38.38;;;8.00;99.90;;;;;;5094237;28;20092;-58
2021/12/14 09:14:42;;;;;;;64.90;37.40;;;8.00;99.90;;;;;;5082243;28;20088;-57
2021/12/14 09:17:10;;;;;;;66.10;37.63;;;8.00;99.90;;;;;;5101351;28;20471;-57
2021/12/14 09:19:41;;;;;;;64.43;36.40;;;8.00;99.90;;;;;;5097540;28;20368;-57
2021/12/14 09:22:19;;;;;;;61.47;35.85;;;8.10;99.90;;;;;;5097058;28;20039;-57
2021/12/14 09:24:45;;;;;;;65.47;36.72;;;8.10;99.90;;;;;;5097168;28;20547;-57
2021/12/14 09:27:16;;;;;;;61.90;36.22;;;8.10;99.90;;;;;;5096283;28;20084;-57
2021/12/14 09:29:42;;;;;;;60.58;35.83;;;8.10;99.90;;;;;;5072916;28;20127;-57
2021/12/14 09:32:11;;;;;;;62.50;35.42;;;8.10;99.90;;;;;;5065368;28;20051;-57
2021/12/14 09:34:39;;;;;;;57.63;35.10;;;8.10;99.90;;;;;;5061834;28;20036;-57
2021/12/14 09:37:09;;;;;;;59.65;34.80;;;8.10;99.90;;;;;;5060118;28;20043;-57
2021/12/14 09:39:40;;;;;;;64.15;36.30;;;8.30;99.90;;;;;;5062135;28;20054;-57
2021/12/14 09:42:14;;;;;;;61.33;35.08;;;8.20;99.90;;;;;;5072026;28;20459;-58
2021/12/14 09:44:41;;;;;;;52.97;31.73;;;8.20;99.90;;;;;;5080574;28;20430;-58
2021/12/14 09:47:19;;;;;;;57.47;34.45;;;8.20;99.90;;;;;;5101390;28;20154;-57
2021/12/14 09:49:47;;;;;;;60.28;34.28;;;8.20;99.90;;;;;;5094933;28;20040;-58
2021/12/14 09:52:24;;;;;;;58.72;33.88;;;8.30;99.90;;;;;;5102033;28;20040;-57
2021/12/14 09:54:51;;;;;;;56.70;33.65;;;8.30;99.90;;;;;;5103752;28;20028;-57
2021/12/14 09:57:23;;;;;;;55.53;32.65;;;8.40;99.90;;;;;;5102794;28;20111;-57
2021/12/14 09:59:51;;;;;;;57.95;33.83;;;8.30;99.90;;;;;;5100328;28;20115;-56
2021/12/14 10:02:25;;;;;;;62.70;34.17;;;8.30;99.90;;;;;;5103910;28;20073;-57
2021/12/14 10:04:55;;;;;;;57.70;33.72;;;8.30;99.90;;;;;;5081873;28;20039;-57
2021/12/14 10:07:22;;;;;;;64.32;35.15;;;8.30;99.90;;;;;;5101530;28;20804;-57
2021/12/14 10:09:50;;;;;;;58.92;34.92;;;8.30;99.90;;;;;;5084840;28;20043;-57
2021/12/14 10:15:14;;;;;;;58.70;33.33;;;8.30;99.90;;;;;;5104093;28;20097;-57
2021/12/14 10:17:41;;;;;;;62.97;34.97;;;8.30;99.90;;;;;;5103821;28;20444;-58
2021/12/14 10:20:12;;;;;;;59.65;32.47;;;8.30;99.90;;;;;;5105336;28;20356;-58
2021/12/14 10:22:38;;;;;;;62.20;34.13;;;8.30;99.90;;;;;;5105458;28;20483;-58
2021/12/14 10:25:09;;;;;;;68.45;33.90;;;8.30;99.90;;;;;;5085544;28;20032;-58
2021/12/14 10:27:37;;;;;;;64.88;34.83;;;8.40;99.90;;;;;;5103627;28;20070;-58
2021/12/14 10:30:16;;;;;;;64.13;34.17;;;8.40;99.90;;;;;;5084139;28;20112;-58
2021/12/14 10:32:42;;;;;;;63.40;33.35;;;8.40;99.90;;;;;;5103848;28;20032;-58
2021/12/14 10:35:21;;;;;;;63.63;34.55;;;8.40;99.90;;;;;;5103183;28;20352;-58
2021/12/14 10:38:07;;;;;;;68.00;35.35;;;8.30;99.90;;;;;;5103902;28;20110;-58
2021/12/14 10:43:23;;;;;;;66.57;34.13;;;8.40;99.90;;;;;;5102829;28;20093;-58
2021/12/14 10:45:57;;;;;;;71.18;35.20;;;8.40;99.90;;;;;;5105283;28;20648;-58
2021/12/14 10:48:27;;;;;;;66.30;34.42;;;8.40;99.90;;;;;;5101812;28;20296;-57
2021/12/14 10:50:55;;;;;;;67.93;35.30;;;8.40;99.90;;;;;;5105076;28;20063;-58
2021/12/14 10:53:22;;;;;;;72.10;35.38;;;8.40;99.90;;;;;;5102994;28;20209;-58
2021/12/14 10:55:56;;;;;;;65.93;33.78;;;8.40;99.90;;;;;;5102735;28;20054;-58
2021/12/14 10:58:25;;;;;;;71.45;35.92;;;8.40;99.90;;;;;;5104708;28;20032;-58
2021/12/14 11:00:59;;;;;;;71.97;35.67;;;8.40;99.90;;;;;;5103324;28;20483;-58
2021/12/14 11:03:30;;;;;;;;;;;8.40;99.90;;;;;;5103593;28;20115;-58
2021/12/14 11:06:00;;;;;;;74.32;36.38;;;8.40;99.90;;;;;;5100752;28;19912;-58
2021/12/14 11:11:01;;;;;;;78.63;38.13;;;8.50;99.90;;;;;;5102766;28;20070;-58
2021/12/14 11:13:35;;;;;;;80.20;36.95;;;8.40;99.90;;;;;;5103445;28;20052;-58
2021/12/14 11:16:00;;;;;;;;;;;8.30;99.90;;;;;;5102848;28;20031;-58
2021/12/14 11:18:27;;;;;;;80.18;37.25;;;8.60;99.90;;;;;;5103951;28;19923;-58
2021/12/14 11:21:04;;;;;;;86.63;37.80;;;8.30;99.90;;;;;;5103643;28;20538;-58
2021/12/14 11:23:35;;;;;;;87.82;38.80;;;8.30;99.90;;;;;;5093946;28;20039;-58
2021/12/14 11:26:10;;;;;;;88.07;39.67;;;8.40;99.90;;;;;;5103878;28;20031;-58
2021/12/14 11:28:41;;;;;;;88.90;39.38;;;8.40;99.90;;;;;;5082954;28;20159;-58
2021/12/14 11:31:37;;;;;;;90.57;38.22;;;8.40;99.90;;;;;;5102037;28;20027;-58
2021/12/14 11:34:11;;;;;;;91.45;38.67;;;8.40;99.90;;;;;;5099619;28;20382;-57
2021/12/14 11:36:46;;;;;;;86.57;39.40;;;8.40;99.90;;;;;;5103053;28;20032;-58
2021/12/14 11:39:27;;;;;;;102.82;40.55;;;8.40;99.90;;;;;;5096444;28;20043;-58
2021/12/14 11:42:01;;;;;;;94.43;38.35;;;8.30;99.90;;;;;;5083250;28;20382;-57
2021/12/14 11:44:32;;;;;;;91.63;38.30;;;8.40;99.90;;;;;;5103289;28;20576;-58
2021/12/14 11:49:56;;;;;;;95.60;39.08;;;8.30;99.90;;;;;;5102270;28;20078;-58
2021/12/14 11:52:57;;;;;;;92.65;39.05;;;8.40;99.90;;;;;;5102720;28;20046;-58
2021/12/14 11:55:49;;;;;;;88.75;37.10;;;8.40;99.90;;;;;;5102564;28;20039;-58
2021/12/14 11:58:31;;;;;;;92.07;38.22;;;8.40;99.90;;;;;;5102326;28;20036;-58
2021/12/14 12:01:31;;;;;;;94.18;37.40;;;8.40;99.90;;;;;;5098802;28;20047;-57
2021/12/14 12:04:12;;;;;;;87.53;36.90;;;8.40;99.90;;;;;;5071423;28;20054;-58
2021/12/14 12:09:39;;;;;;;102.82;38.00;;;8.50;99.90;;;;;;5098312;28;20054;-57
2021/12/14 12:12:09;;;;;;;85.45;36.88;;;8.50;99.90;;;;;;5103860;27;20104;-58
2021/12/14 12:14:35;;;;;;;91.95;37.55;;;8.50;99.90;;;;;;5098371;28;20584;-58
2021/12/14 12:17:31;;;;;;;86.88;37.17;;;8.50;99.90;;;;;;5098554;28;20040;-58
2021/12/14 12:20:09;;;;;;;98.90;39.08;;;8.50;99.90;;;;;;5097967;28;20044;-58
2021/12/14 12:22:45;;;;;;;94.03;37.00;;;8.60;99.90;;;;;;5099100;28;20393;-58
2021/12/14 12:25:23;;;;;;;92.53;37.72;;;8.60;99.90;;;;;;5098801;28;20110;-58
2021/12/14 12:27:54;;;;;;;91.50;36.83;;;8.60;99.90;;;;;;5098869;28;20124;-58
2021/12/14 12:30:33;;;;;;;96.50;38.95;;;8.60;99.90;;;;;;5098382;28;20036;-58
2021/12/14 12:33:19;;;;;;;82.45;36.40;;;8.60;99.90;;;;;;5098778;28;20039;-58
2021/12/14 12:35:52;;;;;;;91.90;37.63;;;8.60;99.90;;;;;;5079973;28;20063;-58
2021/12/14 12:38:27;;;;;;;94.37;39.10;;;8.60;99.90;;;;;;5102132;28;20040;-57
2021/12/14 12:40:55;;;;;;;;;;;8.60;99.90;;;;;;5102137;28;20133;-59
2021/12/14 12:43:35;;;;;;;93.55;37.20;;;8.60;99.90;;;;;;5101627;28;19957;-57
2021/12/14 12:46:05;;;;;;;98.30;37.83;;;8.60;99.90;;;;;;5102014;28;20118;-57
2021/12/14 12:48:43;;;;;;;90.30;38.72;;;8.70;99.90;;;;;;5100517;28;20040;-57
2021/12/14 12:51:10;;;;;;;93.68;38.33;;;8.70;99.90;;;;;;5101443;28;20043;-57
2021/12/14 12:53:36;;;;;;;97.00;38.90;;;8.60;99.90;;;;;;5101475;28;20064;-59
2021/12/14 12:56:13;;;;;;;87.18;36.80;;;8.70;99.90;;;;;;5102186;28;20444;-58
2021/12/14 12:58:45;;;;;;;95.97;38.72;;;8.70;99.90;;;;;;5100640;28;20394;-58
2021/12/14 13:01:11;;;;;;;92.90;38.75;;;8.70;99.90;;;;;;5101374;28;20032;-58
2021/12/14 13:03:42;;;;;;;97.15;39.95;;;8.70;99.90;;;;;;5098760;28;20028;-57
2021/12/14 13:06:22;;;;;;;100.35;39.08;;;8.70;99.90;;;;;;5099459;28;20111;-58
2021/12/14 13:08:52;;;;;;;98.47;41.33;;;8.70;99.90;;;;;;5104123;28;20070;-58
2021/12/14 13:11:23;;;;;;;103.00;41.53;;;8.70;99.90;;;;;;5091423;28;20043;-58
2021/12/14 13:14:04;;;;;;;99.05;38.92;;;8.70;99.90;;;;;;5107226;28;20049;-58
2021/12/14 13:16:44;;;;;;;100.47;40.13;;;8.70;99.90;;;;;;5106800;28;20048;-58
2021/12/14 13:19:17;;;;;;;114.03;40.83;;;8.80;99.90;;;;;;5079424;28;20056;-58
2021/12/14 13:22:10;;;;;;;110.32;39.95;;;8.80;99.90;;;;;;5108491;28;20465;-58
2021/12/14 13:24:42;;;;;;;115.30;39.08;;;8.80;99.90;;;;;;5103844;28;20504;-57
2021/12/14 13:27:11;;;;;;;113.93;41.60;;;8.80;99.90;;;;;;5111225;28;20040;-58
2021/12/14 13:29:51;;;;;;;119.50;40.45;;;8.90;99.90;;;;;;5094084;28;20043;-58
2021/12/14 13:32:24;;;;;;;116.10;42.67;;;8.80;99.90;;;;;;5096350;28;20507;-58
2021/12/14 13:35:12;;;;;;;119.50;42.75;;;8.80;99.90;;;;;;5112480;28;20047;-58
2021/12/14 13:37:42;;;;;;;117.28;43.65;;;8.80;99.90;;;;;;5114297;28;20387;-58
2021/12/14 13:40:22;;;;;;;122.43;43.05;;;8.80;99.90;;;;;;5108603;28;20047;-58